Time;durP1;ratioP1;P1;durP2;ratioP2;P2;SDS_P1;SDS_P2;PMS_P1;PMS_P2;Temp;Humidity;BMP_temperature;BMP_pressure;BME280_temperature;BME280_humidity;BME280_pressure;Samples;Min_cycle;Max_cycle;Signal;HPM_P1;HPM_P2
2023/03/09 00:01:24;;;;;;;17.00;11.00;;;3.20;99.90;;;;;;4883674;29;20049;-93
2023/03/09 00:03:50;;;;;;;13.75;10.38;;;3.20;99.90;;;;;;4882833;29;20097;-93
2023/03/09 00:06:17;;;;;;;16.52;11.10;;;3.20;99.90;;;;;;4882337;29;20080;-93
2023/03/09 00:08:42;;;;;;;15.13;10.40;;;3.20;99.90;;;;;;4882981;29;20443;-92
2023/03/09 00:11:09;;;;;;;15.05;10.70;;;3.20;99.90;;;;;;4883113;29;20045;-91
2023/03/09 00:13:35;;;;;;;13.63;10.02;;;3.20;99.90;;;;;;4882633;29;20143;-93
2023/03/09 00:16:12;;;;;;;14.90;10.85;;;3.20;99.90;;;;;;4882817;29;20529;-93
2023/03/09 00:18:37;;;;;;;15.55;10.27;;;3.20;99.90;;;;;;4882532;29;20049;-92
2023/03/09 00:21:04;;;;;;;17.88;10.35;;;3.20;99.90;;;;;;4882476;29;20500;-92
2023/03/09 00:23:29;;;;;;;15.30;10.63;;;3.20;99.90;;;;;;4882436;29;20529;-92
2023/03/09 00:25:55;;;;;;;15.02;10.73;;;3.20;99.90;;;;;;4882033;29;20053;-92
2023/03/09 00:28:21;;;;;;;14.50;10.80;;;3.20;99.90;;;;;;4882025;29;20049;-92
2023/03/09 00:30:46;;;;;;;15.73;10.93;;;3.20;99.90;;;;;;4883255;29;20426;-93
2023/03/09 00:33:12;;;;;;;15.27;10.32;;;3.20;99.90;;;;;;4881512;29;20045;-92
2023/03/09 00:35:38;;;;;;;14.77;10.30;;;3.20;99.90;;;;;;4882069;29;20045;-93
2023/03/09 00:38:04;;;;;;;14.77;10.82;;;3.20;99.90;;;;;;4883610;29;20049;-92
2023/03/09 00:40:29;;;;;;;14.15;10.68;;;3.10;99.90;;;;;;4883072;29;20292;-92
2023/03/09 00:42:55;;;;;;;15.10;10.73;;;3.20;99.90;;;;;;4881351;29;20052;-92
2023/03/09 00:45:22;;;;;;;15.25;10.82;;;3.10;99.90;;;;;;4881908;29;20147;-91
2023/03/09 00:47:48;;;;;;;14.20;11.02;;;3.10;99.90;;;;;;4881607;29;20053;-92
2023/03/09 00:50:14;;;;;;;18.08;11.15;;;3.10;99.90;;;;;;4881629;29;20403;-94
2023/03/09 00:52:40;;;;;;;15.82;10.77;;;3.10;99.90;;;;;;4881675;29;20052;-91
2023/03/09 00:55:05;;;;;;;15.70;10.85;;;3.10;99.90;;;;;;4881417;29;20052;-92
2023/03/09 00:57:31;;;;;;;15.27;10.98;;;3.10;99.90;;;;;;4881389;29;20044;-92
2023/03/09 00:59:57;;;;;;;14.82;10.88;;;3.10;99.90;;;;;;4882780;29;20053;-92
2023/03/09 01:02:23;;;;;;;14.98;10.23;;;3.10;99.90;;;;;;4881156;29;20056;-92
2023/03/09 01:04:49;;;;;;;15.02;10.50;;;3.10;99.90;;;;;;4882433;29;20051;-92
2023/03/09 01:07:15;;;;;;;15.02;10.93;;;3.00;99.90;;;;;;4881502;29;20049;-92
2023/03/09 01:09:41;;;;;;;15.98;11.45;;;3.10;99.90;;;;;;4882381;29;20045;-94
2023/03/09 01:12:08;;;;;;;15.10;10.98;;;3.00;99.90;;;;;;4881584;29;20490;-93
2023/03/09 01:14:34;;;;;;;14.70;11.25;;;3.10;99.90;;;;;;4880917;29;20158;-92
2023/03/09 01:17:01;;;;;;;15.52;11.00;;;3.00;99.90;;;;;;4882589;29;20041;-93
2023/03/09 01:19:27;;;;;;;16.95;11.32;;;3.00;99.90;;;;;;4882072;29;20048;-93
2023/03/09 01:21:53;;;;;;;16.65;12.05;;;3.00;99.90;;;;;;4880830;29;20406;-91
2023/03/09 01:24:19;;;;;;;17.42;12.15;;;3.00;99.90;;;;;;4880732;29;20049;-92
2023/03/09 01:26:44;;;;;;;16.23;12.10;;;3.00;99.90;;;;;;4882340;29;20064;-92
2023/03/09 01:29:10;;;;;;;15.77;11.88;;;3.00;99.90;;;;;;4880863;29;20125;-91
2023/03/09 01:31:36;;;;;;;17.52;12.00;;;3.00;99.90;;;;;;4882249;29;20037;-91
2023/03/09 01:34:02;;;;;;;16.05;11.50;;;2.90;99.90;;;;;;4880483;29;20136;-92
2023/03/09 01:36:27;;;;;;;15.40;11.25;;;2.90;99.90;;;;;;4880433;29;20148;-92
2023/03/09 01:38:53;;;;;;;16.67;11.13;;;2.90;99.90;;;;;;4881047;29;20040;-93
2023/03/09 01:41:22;;;;;;;16.13;11.25;;;2.90;99.90;;;;;;4881749;29;20060;-92
2023/03/09 01:43:52;;;;;;;17.08;11.95;;;2.90;99.90;;;;;;4880515;29;20049;-92
2023/03/09 01:46:32;;;;;;;18.38;12.38;;;2.90;99.90;;;;;;4880457;29;20052;-92
2023/03/09 01:49:12;;;;;;;17.10;11.63;;;2.90;99.90;;;;;;4880847;29;20049;-91
2023/03/09 01:52:03;;;;;;;15.73;11.57;;;2.90;99.90;;;;;;4880407;29;20136;-92
2023/03/09 01:54:35;;;;;;;15.32;11.32;;;2.90;99.90;;;;;;4880496;29;20041;-92
2023/03/09 01:57:07;;;;;;;15.70;11.50;;;2.90;99.90;;;;;;4880308;29;20049;-92
2023/03/09 01:59:33;;;;;;;14.93;11.02;;;2.90;99.90;;;;;;4880501;29;20124;-92
2023/03/09 02:02:01;;;;;;;16.48;11.20;;;2.90;99.90;;;;;;4881096;29;20446;-92
2023/03/09 02:04:36;;;;;;;14.50;10.82;;;2.90;99.90;;;;;;4880380;29;20531;-94
2023/03/09 02:07:02;;;;;;;15.55;10.90;;;2.90;99.90;;;;;;4880868;29;20056;-92
2023/03/09 02:09:38;;;;;;;16.00;10.90;;;2.90;99.90;;;;;;4880003;29;20049;-93
2023/03/09 02:12:05;;;;;;;14.02;10.52;;;2.80;99.90;;;;;;4880238;29;20060;-91
2023/03/09 02:14:31;;;;;;;13.90;10.70;;;2.80;99.90;;;;;;4879899;29;20048;-92
2023/03/09 02:16:57;;;;;;;16.25;11.15;;;2.80;99.90;;;;;;4880177;29;20517;-92
2023/03/09 02:19:45;;;;;;;16.58;10.55;;;2.80;99.90;;;;;;4879994;29;20049;-91
2023/03/09 02:22:11;;;;;;;15.10;10.88;;;2.80;99.90;;;;;;4879717;29;20053;-91
2023/03/09 02:24:52;;;;;;;16.45;10.82;;;2.80;99.90;;;;;;4880045;29;20059;-91
2023/03/09 02:27:19;;;;;;;15.40;10.38;;;2.80;99.90;;;;;;4881132;29;20045;-91
2023/03/09 02:29:46;;;;;;;16.80;10.63;;;2.80;99.90;;;;;;4879619;29;20061;-91
2023/03/09 02:32:11;;;;;;;16.95;10.93;;;2.80;99.90;;;;;;4879414;29;20097;-92
2023/03/09 02:34:37;;;;;;;15.07;10.52;;;2.80;99.90;;;;;;4880037;29;20454;-92
2023/03/09 02:37:04;;;;;;;15.55;10.88;;;2.80;99.90;;;;;;4879833;29;20045;-92
2023/03/09 02:39:47;;;;;;;15.35;10.73;;;2.70;99.90;;;;;;4879226;29;20053;-93
2023/03/09 02:42:13;;;;;;;14.82;10.60;;;2.70;99.90;;;;;;4879731;29;20140;-93
2023/03/09 02:44:39;;;;;;;16.42;11.57;;;2.70;99.90;;;;;;4879861;29;20141;-92
2023/03/09 02:47:20;;;;;;;16.33;11.50;;;2.70;99.90;;;;;;4879614;29;20135;-93
2023/03/09 02:49:46;;;;;;;17.13;11.43;;;2.70;99.90;;;;;;4880386;29;20081;-91
2023/03/09 02:52:12;;;;;;;15.20;10.52;;;2.70;99.90;;;;;;4879391;29;20087;-91
2023/03/09 02:54:38;;;;;;;14.38;10.95;;;2.70;99.90;;;;;;4879569;29;20053;-91
2023/03/09 02:57:05;;;;;;;16.10;10.68;;;2.70;99.90;;;;;;4879811;29;20464;-92
2023/03/09 02:59:30;;;;;;;15.43;10.10;;;2.70;99.90;;;;;;4879158;29;20049;-91
2023/03/09 03:01:56;;;;;;;15.88;10.48;;;2.70;99.90;;;;;;4879044;29;20045;-92
2023/03/09 03:04:22;;;;;;;19.00;10.93;;;2.60;99.90;;;;;;4878568;29;20075;-92
2023/03/09 03:06:47;;;;;;;13.68;10.10;;;2.70;99.90;;;;;;4879126;29;20041;-92
2023/03/09 03:09:13;;;;;;;14.65;10.35;;;2.60;99.90;;;;;;4878579;29;20052;-92
2023/03/09 03:11:39;;;;;;;14.85;10.23;;;2.60;99.90;;;;;;4879050;29;20040;-92
2023/03/09 03:14:04;;;;;;;13.65;10.20;;;2.60;99.90;;;;;;4879021;29;20037;-91
2023/03/09 03:16:33;;;;;;;14.02;10.02;;;2.60;99.90;;;;;;4879747;29;20518;-91
2023/03/09 03:18:59;;;;;;;13.95;10.32;;;2.60;99.90;;;;;;4878709;29;20045;-91
2023/03/09 03:21:25;;;;;;;14.52;10.30;;;2.60;99.90;;;;;;4879641;29;20118;-90
2023/03/09 03:23:51;;;;;;;14.32;9.43;;;2.60;99.90;;;;;;4878893;29;20438;-92
2023/03/09 03:26:16;;;;;;;17.15;10.93;;;2.60;99.90;;;;;;4878497;29;20063;-89
2023/03/09 03:28:42;;;;;;;14.98;10.02;;;2.60;99.90;;;;;;4878392;29;20048;-89
2023/03/09 03:31:09;;;;;;;14.43;10.07;;;2.60;99.90;;;;;;4880094;29;20048;-91
2023/03/09 03:33:34;;;;;;;15.32;10.23;;;2.50;99.90;;;;;;4879940;29;20042;-92
2023/03/09 03:36:00;;;;;;;16.15;10.07;;;2.50;99.90;;;;;;4880282;29;20053;-91
2023/03/09 03:38:26;;;;;;;13.27;9.45;;;2.50;99.90;;;;;;4878901;29;20057;-91
2023/03/09 03:40:51;;;;;;;16.08;10.90;;;2.60;99.90;;;;;;4879625;29;20057;-91
2023/03/09 03:43:17;;;;;;;14.32;9.85;;;2.60;99.90;;;;;;4879856;29;20045;-91
2023/03/09 03:45:43;;;;;;;15.45;10.50;;;2.50;99.90;;;;;;4879075;29;20127;-91
2023/03/09 03:48:08;;;;;;;15.15;10.35;;;2.50;99.90;;;;;;4879815;29;20081;-92
2023/03/09 03:50:34;;;;;;;16.52;10.98;;;2.50;99.90;;;;;;4879224;29;20049;-91
2023/03/09 03:53:00;;;;;;;14.00;10.35;;;2.50;99.90;;;;;;4879015;29;20438;-91
2023/03/09 03:55:26;;;;;;;13.77;10.52;;;2.50;99.90;;;;;;4878229;29;20041;-91
2023/03/09 03:57:52;;;;;;;15.18;10.02;;;2.50;99.90;;;;;;4878426;29;20108;-91
2023/03/09 04:00:20;;;;;;;15.48;11.30;;;2.50;99.90;;;;;;4878309;29;20131;-90
2023/03/09 04:02:46;;;;;;;15.95;10.65;;;2.50;99.90;;;;;;4878981;29;20056;-90
2023/03/09 04:05:12;;;;;;;16.83;11.38;;;2.50;99.90;;;;;;4878376;29;20053;-91
2023/03/09 04:07:38;;;;;;;14.52;10.77;;;2.50;99.90;;;;;;4878567;29;20104;-90
2023/03/09 04:10:04;;;;;;;15.35;10.50;;;2.50;99.90;;;;;;4879548;29;20603;-91
2023/03/09 04:12:30;;;;;;;15.40;10.85;;;2.50;99.90;;;;;;4879415;29;20060;-91
2023/03/09 04:14:55;;;;;;;16.60;11.30;;;2.50;99.90;;;;;;4879151;29;20049;-90
2023/03/09 04:17:21;;;;;;;17.08;11.10;;;2.40;99.90;;;;;;4880103;29;20105;-91
2023/03/09 04:19:46;;;;;;;17.38;11.40;;;2.50;99.90;;;;;;4881284;29;20049;-90
2023/03/09 04:22:12;;;;;;;16.10;11.93;;;2.40;99.90;;;;;;4882681;29;20041;-91
2023/03/09 04:24:38;;;;;;;17.23;11.55;;;2.40;99.90;;;;;;4883031;29;20127;-91
2023/03/09 04:27:03;;;;;;;16.45;11.15;;;2.40;99.90;;;;;;4881868;29;20045;-92
2023/03/09 04:29:29;;;;;;;21.02;12.20;;;2.40;99.90;;;;;;4881172;29;20454;-91
2023/03/09 04:31:54;;;;;;;20.65;12.70;;;2.40;99.90;;;;;;4882708;29;20041;-90
2023/03/09 04:34:20;;;;;;;19.48;12.88;;;2.40;99.90;;;;;;4881449;29;20112;-91
2023/03/09 04:36:46;;;;;;;18.38;12.20;;;2.40;99.90;;;;;;4881622;29;20067;-91
2023/03/09 04:39:11;;;;;;;15.63;11.63;;;2.40;99.90;;;;;;4882628;29;20128;-91
2023/03/09 04:41:37;;;;;;;17.27;12.50;;;2.40;99.90;;;;;;4881221;29;20049;-91
2023/03/09 04:44:03;;;;;;;17.58;12.75;;;2.40;99.90;;;;;;4881417;29;20053;-91
2023/03/09 04:46:29;;;;;;;18.58;12.60;;;2.40;99.90;;;;;;4881006;29;20049;-89
2023/03/09 04:48:54;;;;;;;18.42;12.38;;;2.40;99.90;;;;;;4880972;29;20104;-92
2023/03/09 04:51:20;;;;;;;17.48;12.90;;;2.40;99.90;;;;;;4880972;29;20414;-91
2023/03/09 04:53:46;;;;;;;17.75;11.95;;;2.40;99.90;;;;;;4882425;29;20128;-91
2023/03/09 04:56:12;;;;;;;18.35;13.63;;;2.40;99.90;;;;;;4881243;29;20418;-91
2023/03/09 04:58:37;;;;;;;22.35;13.43;;;2.40;99.90;;;;;;4882787;29;20045;-93
2023/03/09 05:01:03;;;;;;;20.38;13.35;;;2.40;99.90;;;;;;4881055;29;20049;-92
2023/03/09 05:03:29;;;;;;;23.25;12.93;;;2.40;99.90;;;;;;4880756;29;20073;-91
2023/03/09 05:05:54;;;;;;;18.98;13.23;;;2.40;99.90;;;;;;4881399;29;20049;-91
2023/03/09 05:08:20;;;;;;;19.55;12.63;;;2.40;99.90;;;;;;4880657;29;20041;-92
2023/03/09 05:10:46;;;;;;;18.45;13.13;;;2.30;99.90;;;;;;4882090;29;20101;-91
2023/03/09 05:13:12;;;;;;;20.00;13.57;;;2.30;99.90;;;;;;4880984;29;20076;-91
2023/03/09 05:15:39;;;;;;;19.45;13.35;;;2.30;99.90;;;;;;4880903;29;20049;-90
2023/03/09 05:18:04;;;;;;;17.40;12.35;;;2.30;99.90;;;;;;4880651;29;20045;-90
2023/03/09 05:20:31;;;;;;;20.55;14.55;;;2.30;99.90;;;;;;4880529;29;20057;-91
2023/03/09 05:22:57;;;;;;;20.88;14.02;;;2.30;99.90;;;;;;4880865;29;20049;-91
2023/03/09 05:25:23;;;;;;;21.20;13.95;;;2.30;99.90;;;;;;4880059;29;20048;-91
2023/03/09 05:27:49;;;;;;;18.88;14.00;;;2.30;99.90;;;;;;4880824;29;20056;-89
2023/03/09 05:30:15;;;;;;;21.35;15.43;;;2.30;99.90;;;;;;4880203;29;20049;-91
2023/03/09 05:32:41;;;;;;;22.25;14.55;;;2.30;99.90;;;;;;4880737;29;20060;-90
2023/03/09 05:35:07;;;;;;;21.30;13.98;;;2.30;99.90;;;;;;4876858;29;20052;-91
2023/03/09 05:37:33;;;;;;;20.50;14.45;;;2.30;99.90;;;;;;4868132;29;20045;-90
2023/03/09 05:39:59;;;;;;;19.73;14.05;;;2.30;99.90;;;;;;4876539;29;20064;-90
2023/03/09 05:42:24;;;;;;;21.25;14.65;;;2.30;99.90;;;;;;4888566;29;20375;-91
2023/03/09 05:44:50;;;;;;;22.13;14.70;;;2.30;99.90;;;;;;4899294;29;20612;-92
2023/03/09 05:47:16;;;;;;;22.30;15.18;;;2.30;99.90;;;;;;4886197;29;20048;-92
2023/03/09 05:49:41;;;;;;;21.27;13.70;;;2.30;99.90;;;;;;4881028;29;20049;-93
2023/03/09 05:52:07;;;;;;;20.83;14.90;;;2.30;99.90;;;;;;4887468;29;20128;-92
2023/03/09 05:54:33;;;;;;;22.20;14.15;;;2.30;99.90;;;;;;4868088;29;20067;-93
2023/03/09 05:56:59;;;;;;;21.83;14.60;;;2.30;99.90;;;;;;4879138;29;20052;-93
2023/03/09 05:59:24;;;;;;;23.55;15.20;;;2.30;99.90;;;;;;4869803;29;20073;-93
2023/03/09 06:01:50;;;;;;;21.73;14.15;;;2.20;99.90;;;;;;4877317;29;20124;-93
2023/03/09 06:04:16;;;;;;;21.40;14.50;;;2.20;99.90;;;;;;4880557;29;20061;-94
2023/03/09 06:06:41;;;;;;;20.90;14.18;;;2.30;99.90;;;;;;4880223;29;20124;-93
2023/03/09 06:09:07;;;;;;;21.63;14.48;;;2.30;99.90;;;;;;4880759;29;20493;-93
2023/03/09 06:11:32;;;;;;;22.52;14.05;;;2.30;99.90;;;;;;4879180;29;20545;-93
2023/03/09 06:13:58;;;;;;;20.88;13.93;;;2.30;99.90;;;;;;4878281;29;20064;-93
2023/03/09 06:16:24;;;;;;;22.98;13.45;;;2.30;99.90;;;;;;4879073;29;20052;-93
2023/03/09 06:18:50;;;;;;;22.17;14.30;;;2.30;99.90;;;;;;4886834;29;20132;-96
2023/03/09 06:21:17;;;;;;;19.98;13.15;;;2.30;99.90;;;;;;4883279;29;20056;-96
2023/03/09 06:23:52;;;;;;;19.48;13.23;;;2.30;99.90;;;;;;4883942;29;20045;-96
2023/03/09 06:26:25;;;;;;;19.17;13.48;;;2.30;99.90;;;;;;4885595;29;20045;-96
2023/03/09 06:29:07;;;;;;;20.92;14.00;;;2.20;99.90;;;;;;4890306;29;20053;-96
2023/03/09 06:31:33;;;;;;;18.42;13.10;;;2.30;99.90;;;;;;4887008;29;20056;-95
2023/03/09 06:33:58;;;;;;;20.85;13.95;;;2.20;99.90;;;;;;4882521;29;20553;-92
2023/03/09 06:36:24;;;;;;;17.75;12.95;;;2.20;99.90;;;;;;4884258;29;20421;-93
2023/03/09 06:38:49;;;;;;;20.38;13.40;;;2.20;99.90;;;;;;4878580;29;20486;-93
2023/03/09 06:41:15;;;;;;;20.98;12.60;;;2.20;99.90;;;;;;4879251;29;20489;-94
2023/03/09 06:43:42;;;;;;;21.05;12.80;;;2.20;99.90;;;;;;4881229;29;20048;-94
2023/03/09 06:46:09;;;;;;;19.30;12.75;;;2.20;99.90;;;;;;4887199;29;20111;-93
2023/03/09 06:48:35;;;;;;;17.98;12.13;;;2.20;99.90;;;;;;4880797;29;20052;-94
2023/03/09 06:51:00;;;;;;;19.77;12.85;;;2.20;99.90;;;;;;4896212;29;20056;-94
2023/03/09 06:53:26;;;;;;;19.17;12.55;;;2.20;99.90;;;;;;4891181;29;20071;-93
2023/03/09 06:55:51;;;;;;;18.75;12.25;;;2.20;99.90;;;;;;4894951;29;20055;-94
2023/03/09 06:58:17;;;;;;;20.42;12.07;;;2.20;99.90;;;;;;4892721;29;20387;-94
2023/03/09 07:00:46;;;;;;;19.55;12.73;;;2.20;99.90;;;;;;4879985;29;20049;-95
2023/03/09 07:03:17;;;;;;;19.48;13.18;;;2.20;99.90;;;;;;4880621;29;20045;-95
2023/03/09 07:05:43;;;;;;;17.17;12.25;;;2.30;99.90;;;;;;4881032;29;20051;-95
2023/03/09 07:08:09;;;;;;;17.90;11.90;;;2.20;99.90;;;;;;4879558;29;20132;-94
2023/03/09 07:10:35;;;;;;;18.63;11.93;;;2.30;99.90;;;;;;4881178;29;20094;-94
2023/03/09 07:13:03;;;;;;;19.45;12.30;;;2.30;99.90;;;;;;4887764;29;20057;-96
2023/03/09 07:15:29;;;;;;;19.25;11.82;;;2.30;99.90;;;;;;4863907;29;20122;-94
2023/03/09 07:17:55;;;;;;;19.02;12.38;;;2.30;99.90;;;;;;4886468;29;20049;-96
2023/03/09 07:20:23;;;;;;;18.10;12.57;;;2.30;99.90;;;;;;4883356;29;20183;-96
2023/03/09 07:22:49;;;;;;;19.63;12.45;;;2.30;99.90;;;;;;4893349;29;20041;-96
2023/03/09 07:25:16;;;;;;;22.58;12.45;;;2.30;99.90;;;;;;4895056;29;20135;-96
2023/03/09 07:27:42;;;;;;;19.38;12.27;;;2.30;99.90;;;;;;4874928;29;20502;-95
2023/03/09 07:30:09;;;;;;;17.33;11.45;;;2.30;99.90;;;;;;4882664;29;20078;-94
2023/03/09 07:32:34;;;;;;;18.77;12.27;;;2.30;99.90;;;;;;4885103;29;20049;-95
2023/03/09 07:35:00;;;;;;;19.17;12.25;;;2.30;99.90;;;;;;4879854;29;20409;-95
2023/03/09 07:37:26;;;;;;;19.20;12.88;;;2.40;99.90;;;;;;4882005;29;20478;-95
2023/03/09 07:39:51;;;;;;;18.25;12.45;;;2.40;99.90;;;;;;4882265;29;20049;-96
2023/03/09 07:42:17;;;;;;;19.40;12.20;;;2.40;99.90;;;;;;4895226;29;20139;-96
2023/03/09 07:44:42;;;;;;;17.35;12.15;;;2.40;99.90;;;;;;4879807;29;20410;-95
2023/03/09 07:47:08;;;;;;;20.75;12.43;;;2.40;99.90;;;;;;4880576;29;20041;-94
2023/03/09 07:49:34;;;;;;;22.15;12.85;;;2.40;99.90;;;;;;4881361;29;20053;-96
2023/03/09 07:51:59;;;;;;;19.45;12.80;;;2.40;99.90;;;;;;4883424;29;20048;-95
2023/03/09 07:54:25;;;;;;;19.48;12.90;;;2.40;99.90;;;;;;4883948;29;20052;-96
2023/03/09 07:56:51;;;;;;;20.05;12.98;;;2.50;99.90;;;;;;4884522;29;20049;-96
2023/03/09 07:59:17;;;;;;;19.20;12.52;;;2.50;99.90;;;;;;4886862;29;20051;-94
2023/03/09 08:01:43;;;;;;;20.25;12.70;;;2.50;99.90;;;;;;4885086;29;20120;-94
2023/03/09 08:04:09;;;;;;;19.65;13.93;;;2.50;99.90;;;;;;4883587;29;20480;-95
2023/03/09 08:06:38;;;;;;;19.88;13.32;;;2.50;99.90;;;;;;4885226;29;20094;-94
2023/03/09 08:09:06;;;;;;;20.65;12.80;;;2.50;99.90;;;;;;4884815;29;20198;-94
2023/03/09 08:11:32;;;;;;;18.92;13.07;;;2.60;99.90;;;;;;4883274;29;20053;-94
2023/03/09 08:13:58;;;;;;;20.02;13.35;;;2.60;99.90;;;;;;4884995;29;20128;-95
2023/03/09 08:16:24;;;;;;;19.75;13.18;;;2.60;99.90;;;;;;4884927;29;20073;-94
2023/03/09 08:18:50;;;;;;;20.80;13.32;;;2.60;99.90;;;;;;4885405;29;20053;-95
2023/03/09 08:21:16;;;;;;;18.80;13.05;;;2.70;99.90;;;;;;4898392;29;20047;-93
2023/03/09 08:23:43;;;;;;;21.65;13.07;;;2.70;99.90;;;;;;4903083;29;20048;-95
2023/03/09 08:26:14;;;;;;;22.23;13.63;;;2.70;99.90;;;;;;4905882;29;20048;-94
2023/03/09 08:28:41;;;;;;;20.38;13.90;;;2.70;99.90;;;;;;4899306;29;20124;-96
2023/03/09 08:31:10;;;;;;;19.85;13.52;;;2.70;99.90;;;;;;4891972;29;20057;-95
2023/03/09 08:33:36;;;;;;;18.60;12.73;;;2.70;99.90;;;;;;4882999;29;20147;-94
2023/03/09 08:36:26;;;;;;;20.27;13.52;;;2.70;99.90;;;;;;4883702;29;20041;-92
2023/03/09 08:38:52;;;;;;;20.30;13.48;;;2.80;99.90;;;;;;4883121;29;20049;-93
2023/03/09 08:41:18;;;;;;;19.67;13.50;;;2.80;99.90;;;;;;4884746;29;20124;-92
2023/03/09 08:43:45;;;;;;;20.38;14.07;;;2.70;99.90;;;;;;4885551;29;20489;-94
2023/03/09 08:46:11;;;;;;;18.40;13.05;;;2.80;99.90;;;;;;4885806;29;20386;-94
2023/03/09 08:48:37;;;;;;;20.45;13.73;;;2.80;99.90;;;;;;4879930;29;20049;-95
2023/03/09 08:51:05;;;;;;;21.40;13.48;;;2.80;99.90;;;;;;4876966;29;20052;-94
2023/03/09 08:53:32;;;;;;;22.98;14.32;;;2.80;99.90;;;;;;4886055;29;20052;-94
2023/03/09 08:55:58;;;;;;;20.77;14.40;;;2.80;99.90;;;;;;4887943;29;20177;-93
2023/03/09 08:58:23;;;;;;;21.70;14.35;;;2.80;99.90;;;;;;4888785;29;20069;-94
2023/03/09 09:00:49;;;;;;;19.73;13.25;;;2.80;99.90;;;;;;4876006;29;20053;-91
2023/03/09 09:03:15;;;;;;;19.85;13.98;;;2.90;99.90;;;;;;4875135;29;20478;-92
2023/03/09 09:05:41;;;;;;;19.17;13.88;;;2.90;99.90;;;;;;4882845;29;20064;-92
2023/03/09 09:08:06;;;;;;;20.08;13.85;;;2.90;99.90;;;;;;4881824;29;20128;-92
2023/03/09 09:10:34;;;;;;;19.90;14.25;;;2.90;99.90;;;;;;4883698;29;20045;-92
2023/03/09 09:12:59;;;;;;;21.40;14.70;;;2.90;99.90;;;;;;4868236;29;20060;-91
2023/03/09 09:15:25;;;;;;;20.15;14.10;;;2.90;99.90;;;;;;4882355;29;20401;-92
2023/03/09 09:17:53;;;;;;;19.85;14.82;;;3.00;99.90;;;;;;4882679;29;20181;-92
2023/03/09 09:20:19;;;;;;;20.38;14.02;;;2.90;99.90;;;;;;4892701;29;20049;-91
2023/03/09 09:22:45;;;;;;;20.80;14.65;;;3.00;99.90;;;;;;4881495;29;20056;-93
2023/03/09 09:25:11;;;;;;;20.98;14.63;;;3.00;99.90;;;;;;4883562;29;20060;-92
2023/03/09 09:27:36;;;;;;;20.67;14.55;;;3.00;99.90;;;;;;4900262;29;20044;-92
2023/03/09 09:30:04;;;;;;;20.98;14.40;;;3.00;99.90;;;;;;4896963;29;20041;-93
2023/03/09 09:32:30;;;;;;;18.75;14.00;;;3.00;99.90;;;;;;4881182;29;20080;-93
2023/03/09 09:34:57;;;;;;;20.80;14.23;;;3.10;99.90;;;;;;4881940;29;20131;-92
2023/03/09 09:37:23;;;;;;;18.85;13.60;;;3.10;99.90;;;;;;4899631;29;20044;-92
2023/03/09 09:39:49;;;;;;;20.55;13.93;;;3.10;99.90;;;;;;4899043;29;20083;-92
2023/03/09 09:42:29;;;;;;;20.08;14.38;;;3.10;99.90;;;;;;4881547;29;20451;-91
2023/03/09 09:44:57;;;;;;;19.35;14.13;;;3.10;99.90;;;;;;4889577;29;20105;-92
2023/03/09 09:47:29;;;;;;;19.75;13.77;;;3.10;99.90;;;;;;4881119;29;20053;-94
2023/03/09 09:49:58;;;;;;;20.27;13.57;;;3.20;99.90;;;;;;4894181;29;20466;-93
2023/03/09 09:52:35;;;;;;;19.13;13.38;;;3.20;99.90;;;;;;4883093;29;20072;-93
2023/03/09 09:55:07;;;;;;;19.77;13.32;;;3.20;99.90;;;;;;4899668;29;20095;-94
2023/03/09 09:57:43;;;;;;;21.00;14.25;;;3.20;99.90;;;;;;4869088;29;20483;-94
2023/03/09 10:00:18;;;;;;;20.00;13.48;;;3.20;99.90;;;;;;4877266;29;20053;-94
2023/03/09 10:03:01;;;;;;;19.63;13.38;;;3.30;99.90;;;;;;4881231;29;20508;-94
2023/03/09 10:05:39;;;;;;;16.50;12.27;;;3.30;99.90;;;;;;4871308;29;20076;-95
2023/03/09 10:08:25;;;;;;;19.27;13.43;;;3.30;99.90;;;;;;4892777;29;20053;-96
2023/03/09 10:10:52;;;;;;;18.02;13.00;;;3.30;99.90;;;;;;4896260;29;20033;-95
2023/03/09 10:13:29;;;;;;;17.48;12.65;;;3.30;99.90;;;;;;4887043;29;20057;-96
2023/03/09 10:15:56;;;;;;;16.15;12.15;;;3.40;99.90;;;;;;4882729;29;20073;-94
2023/03/09 10:18:42;;;;;;;19.45;13.32;;;3.40;99.90;;;;;;4882287;29;20409;-95
2023/03/09 10:21:15;;;;;;;16.85;12.93;;;3.50;99.90;;;;;;4880137;29;20049;-92
2023/03/09 10:23:41;;;;;;;;;;;3.50;99.90;;;;;;4878405;29;20033;-92
2023/03/09 10:26:25;;;;;;;15.40;11.45;;;3.50;99.90;;;;;;4880725;29;19924;-92
2023/03/09 10:28:55;;;;;;;16.40;12.07;;;3.50;99.90;;;;;;4880209;29;20056;-93
2023/03/09 10:31:45;;;;;;;15.05;10.93;;;3.60;99.90;;;;;;4880357;29;20059;-93
2023/03/09 10:34:25;;;;;;;18.27;12.70;;;3.60;99.90;;;;;;4880036;29;20053;-93
2023/03/09 10:37:05;;;;;;;16.45;12.30;;;3.60;99.90;;;;;;4881221;29;20180;-94
2023/03/09 10:39:59;;;;;;;16.77;12.18;;;3.60;99.90;;;;;;4880176;29;20049;-94
2023/03/09 10:42:27;;;;;;;16.23;12.02;;;3.70;99.90;;;;;;4884689;29;20104;-94
2023/03/09 10:45:22;;;;;;;17.58;11.43;;;3.70;99.90;;;;;;4880794;29;20124;-94
2023/03/09 10:48:07;;;;;;;15.75;11.45;;;3.70;99.90;;;;;;4882113;29;20045;-95
2023/03/09 10:50:42;;;;;;;15.68;11.10;;;3.80;99.90;;;;;;4884913;29;20124;-95
2023/03/09 10:53:30;;;;;;;16.35;11.40;;;3.80;99.90;;;;;;4888228;29;20045;-95
2023/03/09 10:56:12;;;;;;;15.50;11.05;;;3.80;99.90;;;;;;4891536;29;20057;-95
2023/03/09 10:58:38;;;;;;;15.70;11.27;;;3.80;99.90;;;;;;4882877;29;20077;-95
2023/03/09 11:01:19;;;;;;;14.02;10.25;;;3.80;99.90;;;;;;4897291;29;20548;-95
2023/03/09 11:03:44;;;;;;;15.57;11.40;;;3.90;99.90;;;;;;4882999;29;20084;-95
2023/03/09 11:06:30;;;;;;;14.43;10.82;;;3.90;99.90;;;;;;4884286;29;20081;-96
2023/03/09 11:09:09;;;;;;;14.13;10.50;;;3.90;99.90;;;;;;4890318;29;20077;-94
2023/03/09 11:11:36;;;;;;;14.45;11.05;;;3.90;99.90;;;;;;4893471;29;20037;-95
2023/03/09 11:14:02;;;;;;;14.45;10.57;;;3.90;99.90;;;;;;4892910;29;20088;-95
2023/03/09 11:16:36;;;;;;;14.15;10.38;;;3.90;99.90;;;;;;4886052;29;20417;-95
2023/03/09 11:19:08;;;;;;;14.75;10.32;;;4.00;99.90;;;;;;4892882;29;20135;-92
2023/03/09 11:21:43;;;;;;;14.35;10.63;;;4.00;99.90;;;;;;4882966;29;20049;-94
2023/03/09 11:24:13;;;;;;;15.60;10.93;;;4.00;99.90;;;;;;4894063;29;20041;-92
2023/03/09 11:26:46;;;;;;;14.20;10.52;;;4.00;99.90;;;;;;4872151;29;20051;-93
2023/03/09 11:29:27;;;;;;;14.23;10.68;;;4.10;99.90;;;;;;4891600;29;20033;-96
2023/03/09 11:31:53;;;;;;;14.27;10.18;;;4.10;99.90;;;;;;4886287;29;20049;-95
2023/03/09 11:34:35;;;;;;;13.93;10.20;;;4.10;99.90;;;;;;4889221;29;20396;-93
2023/03/09 11:37:15;;;;;;;13.85;10.15;;;4.10;99.90;;;;;;4902143;29;20044;-95
2023/03/09 11:39:53;;;;;;;13.32;10.50;;;4.20;99.90;;;;;;4881511;29;20096;-95
2023/03/09 11:42:45;;;;;;;13.50;10.32;;;4.20;99.90;;;;;;4869141;29;20141;-94
2023/03/09 11:45:33;;;;;;;13.90;9.73;;;4.20;99.90;;;;;;4874776;29;20053;-96
2023/03/09 11:48:15;;;;;;;14.52;10.70;;;4.20;99.90;;;;;;4879367;29;20050;-95
2023/03/09 11:50:55;;;;;;;14.02;10.70;;;4.20;99.90;;;;;;4874539;29;20564;-94
2023/03/09 11:53:25;;;;;;;14.75;10.10;;;4.20;99.90;;;;;;4879389;29;20041;-94
2023/03/09 11:56:08;;;;;;;14.85;10.82;;;4.30;99.90;;;;;;4875733;29;20045;-93
2023/03/09 11:58:40;;;;;;;13.82;10.27;;;4.30;99.90;;;;;;4878955;29;20089;-93
2023/03/09 12:01:32;;;;;;;16.17;10.43;;;4.30;99.90;;;;;;4885849;29;20085;-94
2023/03/09 12:04:03;;;;;;;14.75;10.50;;;4.30;99.90;;;;;;4881742;29;20056;-92
2023/03/09 12:06:48;;;;;;;14.88;10.13;;;4.30;99.90;;;;;;4881494;29;20437;-94
2023/03/09 12:09:33;;;;;;;16.20;11.20;;;4.30;99.90;;;;;;4886289;29;20085;-93
2023/03/09 12:12:45;;;;;;;14.73;11.07;;;4.30;99.90;;;;;;4896553;29;20044;-94
2023/03/09 12:15:37;;;;;;;16.48;11.25;;;4.40;99.90;;;;;;4882250;29;20049;-93
2023/03/09 12:18:06;;;;;;;13.57;9.93;;;4.40;99.90;;;;;;4882825;29;20052;-94
2023/03/09 12:20:38;;;;;;;16.17;10.70;;;4.40;99.90;;;;;;4892155;29;20041;-93
2023/03/09 12:23:04;;;;;;;14.25;10.70;;;4.40;99.90;;;;;;4873379;29;20060;-93
2023/03/09 12:25:30;;;;;;;14.18;10.80;;;4.40;99.90;;;;;;4886953;29;20045;-94
2023/03/09 12:28:00;;;;;;;13.15;10.00;;;4.40;99.90;;;;;;4896491;29;20060;-95
2023/03/09 12:30:30;;;;;;;14.68;10.65;;;4.50;99.90;;;;;;4880044;29;20048;-95
2023/03/09 12:33:00;;;;;;;14.75;10.63;;;4.50;99.90;;;;;;4879321;29;20113;-93
2023/03/09 12:35:40;;;;;;;13.32;10.23;;;4.50;99.90;;;;;;4878818;29;20125;-93
2023/03/09 12:38:21;;;;;;;15.52;10.15;;;4.50;99.90;;;;;;4879933;29;20053;-94
2023/03/09 12:40:48;;;;;;;13.98;11.00;;;4.50;99.90;;;;;;4869666;29;20060;-93
2023/03/09 12:43:14;;;;;;;14.10;11.13;;;4.50;99.90;;;;;;4892680;29;20048;-93
2023/03/09 12:45:41;;;;;;;15.20;10.98;;;4.60;99.90;;;;;;4901602;29;20047;-93
2023/03/09 12:48:07;;;;;;;14.70;11.30;;;4.60;99.90;;;;;;4888744;29;20048;-93